Time;durP1;ratioP1;P1;durP2;ratioP2;P2;SDS_P1;SDS_P2;PMS_P1;PMS_P2;Temp;Humidity;BMP_temperature;BMP_pressure;BME280_temperature;BME280_humidity;BME280_pressure;Samples;Min_cycle;Max_cycle;Signal;HPM_P1;HPM_P2
2022/05/12 00:02:20;;;;;;;5.87;3.03;;;15.50;78.50;;;;;;5051911;28;20566;-61
2022/05/12 00:04:48;;;;;;;6.20;2.83;;;15.50;78.40;;;;;;5052137;28;20297;-61
2022/05/12 00:07:14;;;;;;;7.50;3.20;;;15.50;78.20;;;;;;5051671;28;20236;-61
2022/05/12 00:09:41;;;;;;;4.97;2.53;;;15.50;78.40;;;;;;5051962;28;20315;-64
2022/05/12 00:12:09;;;;;;;6.77;2.80;;;15.50;78.40;;;;;;5051735;28;20705;-62
2022/05/12 00:14:36;;;;;;;3.93;2.80;;;15.50;78.70;;;;;;5051599;28;20210;-62
2022/05/12 00:17:03;;;;;;;4.40;2.90;;;15.50;78.80;;;;;;5051681;28;20204;-62
2022/05/12 00:19:30;;;;;;;7.80;2.83;;;15.50;78.80;;;;;;5051625;28;20201;-60
2022/05/12 00:21:58;;;;;;;5.90;3.03;;;15.50;79.00;;;;;;5051518;28;20644;-61
2022/05/12 00:24:25;;;;;;;5.20;3.17;;;15.50;79.10;;;;;;5051443;28;20212;-61
2022/05/12 00:26:52;;;;;;;5.77;2.80;;;15.50;79.10;;;;;;5051622;28;20221;-62
2022/05/12 00:29:19;;;;;;;5.73;3.17;;;15.50;79.20;;;;;;5051771;28;20558;-59
2022/05/12 00:31:48;;;;;;;6.03;3.57;;;15.50;79.30;;;;;;5051847;28;20209;-61
2022/05/12 00:34:17;;;;;;;6.57;3.80;;;15.50;79.40;;;;;;5050911;28;20233;-61
2022/05/12 00:36:43;;;;;;;5.27;3.23;;;15.40;79.50;;;;;;5051627;28;20219;-61
2022/05/12 00:39:12;;;;;;;7.80;3.07;;;15.40;79.90;;;;;;5051586;28;20566;-60
2022/05/12 00:41:40;;;;;;;6.63;3.20;;;15.40;80.10;;;;;;5051328;28;20205;-61
2022/05/12 00:44:09;;;;;;;13.83;3.43;;;15.40;80.20;;;;;;5051142;28;20216;-62
2022/05/12 00:46:39;;;;;;;6.40;3.70;;;15.30;80.70;;;;;;5051505;28;20252;-61
2022/05/12 00:49:08;;;;;;;6.73;3.20;;;15.30;81.00;;;;;;5051590;28;20193;-61
2022/05/12 00:51:40;;;;;;;5.87;2.90;;;15.30;81.10;;;;;;5051567;28;20201;-62
2022/05/12 00:54:13;;;;;;;7.47;3.40;;;15.30;81.10;;;;;;5051375;28;20190;-60
2022/05/12 00:56:40;;;;;;;4.57;3.20;;;15.30;81.20;;;;;;5051514;28;20545;-61
2022/05/12 00:59:10;;;;;;;4.40;3.03;;;15.30;81.20;;;;;;5051367;28;20228;-61
2022/05/12 01:01:38;;;;;;;7.90;3.20;;;15.20;81.20;;;;;;5051322;28;20529;-61
2022/05/12 01:04:05;;;;;;;7.37;3.00;;;15.20;81.20;;;;;;5051145;28;20201;-61
2022/05/12 01:06:32;;;;;;;4.93;3.07;;;15.20;81.30;;;;;;5051260;28;20647;-60
2022/05/12 01:08:59;;;;;;;6.73;3.00;;;15.20;81.60;;;;;;5051151;28;20693;-61
2022/05/12 01:11:27;;;;;;;5.53;3.00;;;15.20;81.40;;;;;;5051240;28;20209;-60
2022/05/12 01:13:59;;;;;;;6.23;2.97;;;15.20;81.40;;;;;;5051226;28;20216;-61
2022/05/12 01:16:39;;;;;;;7.30;3.10;;;15.20;81.20;;;;;;5051098;28;20200;-62
2022/05/12 01:19:08;;;;;;;4.20;2.80;;;15.20;81.20;;;;;;5050938;28;20280;-63
2022/05/12 01:21:36;;;;;;;5.07;2.63;;;15.20;81.10;;;;;;5051084;28;20212;-60
2022/05/12 01:24:04;;;;;;;5.80;3.07;;;15.20;81.10;;;;;;5051092;28;20311;-61
2022/05/12 01:26:33;;;;;;;6.53;2.97;;;15.20;81.00;;;;;;5050849;28;20246;-61
2022/05/12 01:29:00;;;;;;;6.63;3.10;;;15.20;81.00;;;;;;5051093;28;20206;-63
2022/05/12 01:31:27;;;;;;;8.07;2.77;;;15.20;81.10;;;;;;5052936;28;20209;-61
2022/05/12 01:33:54;;;;;;;5.70;2.90;;;15.20;81.20;;;;;;5054512;28;20726;-59
2022/05/12 01:36:22;;;;;;;5.20;3.00;;;15.20;81.20;;;;;;5054752;28;20201;-60
2022/05/12 01:38:49;;;;;;;5.03;3.10;;;15.20;81.20;;;;;;5054570;28;20205;-61
2022/05/12 01:41:17;;;;;;;4.90;2.80;;;15.20;81.40;;;;;;5054415;28;20209;-61
2022/05/12 01:43:44;;;;;;;5.80;3.23;;;15.20;81.40;;;;;;5054623;28;20564;-60
2022/05/12 01:46:12;;;;;;;4.67;2.90;;;15.20;81.40;;;;;;5054655;28;20304;-61
2022/05/12 01:48:39;;;;;;;6.80;3.17;;;15.20;81.40;;;;;;5054738;28;20228;-62
2022/05/12 01:51:06;;;;;;;7.57;2.70;;;15.20;81.60;;;;;;5054311;28;20228;-60
2022/05/12 01:53:33;;;;;;;7.60;3.07;;;15.20;81.70;;;;;;5054691;28;20315;-60
2022/05/12 01:56:01;;;;;;;9.40;3.30;;;15.10;82.60;;;;;;5054416;28;20215;-61
2022/05/12 01:58:29;;;;;;;6.27;2.90;;;15.10;81.70;;;;;;5054370;28;20201;-61
2022/05/12 02:00:56;;;;;;;8.20;2.90;;;15.10;82.00;;;;;;5054130;28;20206;-61
2022/05/12 02:03:22;;;;;;;5.57;3.03;;;15.10;81.80;;;;;;5054182;28;20205;-61
2022/05/12 02:05:49;;;;;;;6.63;2.83;;;15.10;82.20;;;;;;5053594;28;20215;-60
2022/05/12 02:08:18;;;;;;;8.17;3.10;;;15.10;82.60;;;;;;5054039;28;20710;-60
2022/05/12 02:10:47;;;;;;;5.90;2.97;;;15.10;82.60;;;;;;5053674;28;20205;-61
2022/05/12 02:13:15;;;;;;;5.37;2.97;;;15.10;82.60;;;;;;5054057;28;20216;-60
2022/05/12 02:15:44;;;;;;;9.13;3.17;;;15.10;82.50;;;;;;5053890;28;20205;-61
2022/05/12 02:18:10;;;;;;;8.57;2.90;;;15.10;82.50;;;;;;5053824;28;20205;-61
2022/05/12 02:20:38;;;;;;;6.80;2.60;;;15.10;82.50;;;;;;5053763;28;20201;-60
2022/05/12 02:23:05;;;;;;;3.60;2.50;;;15.00;83.30;;;;;;5054109;28;20577;-60
2022/05/12 02:25:32;;;;;;;8.63;3.00;;;15.00;82.30;;;;;;5053935;28;20209;-63
2022/05/12 02:27:59;;;;;;;4.60;2.60;;;15.10;82.30;;;;;;5053196;28;20217;-61
2022/05/12 02:30:28;;;;;;;5.10;2.63;;;15.10;82.20;;;;;;5053430;28;20209;-61
2022/05/12 02:32:56;;;;;;;7.17;3.10;;;15.10;82.10;;;;;;5053100;28;20212;-60
2022/05/12 02:35:24;;;;;;;11.77;3.00;;;15.10;82.10;;;;;;5053696;28;20616;-60
2022/05/12 02:37:51;;;;;;;4.73;2.70;;;15.10;82.00;;;;;;5053487;28;20225;-61
2022/05/12 02:40:21;;;;;;;5.33;2.80;;;15.10;81.90;;;;;;5053130;28;20220;-62
2022/05/12 02:42:48;;;;;;;7.87;2.80;;;15.10;81.90;;;;;;5053417;28;20212;-63
2022/05/12 02:45:16;;;;;;;6.00;2.70;;;15.10;81.90;;;;;;5053534;28;20230;-61
2022/05/12 02:47:43;;;;;;;12.03;2.93;;;15.10;82.00;;;;;;5053210;28;20229;-61
2022/05/12 02:50:13;;;;;;;7.67;3.10;;;15.20;82.00;;;;;;5053182;28;20220;-61
2022/05/12 02:52:40;;;;;;;7.93;2.93;;;15.20;81.90;;;;;;5053215;28;20204;-62
2022/05/12 02:55:08;;;;;;;7.10;3.00;;;15.20;81.90;;;;;;5053452;28;20212;-62
2022/05/12 02:57:35;;;;;;;8.63;3.03;;;15.10;81.90;;;;;;5053047;28;20201;-61
2022/05/12 03:00:03;;;;;;;9.27;2.83;;;15.20;81.80;;;;;;5052909;28;20217;-62
2022/05/12 03:02:29;;;;;;;12.87;3.03;;;15.20;81.70;;;;;;5052972;28;20579;-62
2022/05/12 03:04:56;;;;;;;7.33;2.77;;;15.20;81.80;;;;;;5053014;28;20209;-62
2022/05/12 03:07:24;;;;;;;5.27;2.60;;;15.20;81.90;;;;;;5053061;28;20228;-60
2022/05/12 03:09:51;;;;;;;8.10;3.00;;;15.20;82.00;;;;;;5052935;28;20205;-61
2022/05/12 03:12:18;;;;;;;9.60;2.67;;;15.20;81.90;;;;;;5052734;28;20215;-62
2022/05/12 03:14:45;;;;;;;13.83;3.03;;;15.30;81.80;;;;;;5052511;28;20212;-63
2022/05/12 03:17:11;;;;;;;7.47;2.60;;;15.30;81.80;;;;;;5052644;28;20213;-62
2022/05/12 03:19:38;;;;;;;6.43;2.60;;;15.30;81.70;;;;;;5052426;28;20215;-61
2022/05/12 03:22:05;;;;;;;6.57;2.90;;;15.30;81.50;;;;;;5052471;28;20248;-61
2022/05/12 03:24:33;;;;;;;6.50;2.43;;;15.30;81.50;;;;;;5052601;28;20613;-60
2022/05/12 03:27:00;;;;;;;4.60;2.80;;;15.30;81.60;;;;;;5052644;28;20205;-62
2022/05/12 03:29:27;;;;;;;5.57;2.43;;;15.40;81.90;;;;;;5052744;28;20574;-62
2022/05/12 03:31:54;;;;;;;4.30;2.63;;;15.40;82.30;;;;;;5052350;28;20263;-61
2022/05/12 03:34:21;;;;;;;4.10;2.50;;;15.40;82.30;;;;;;5052084;28;20233;-62
2022/05/12 03:36:47;;;;;;;7.50;2.63;;;15.40;82.50;;;;;;5052022;28;20209;-61
2022/05/12 03:39:14;;;;;;;6.03;2.73;;;15.50;82.20;;;;;;5052446;28;20640;-61
2022/05/12 03:41:42;;;;;;;4.63;2.63;;;15.50;81.80;;;;;;5052276;28;20666;-62
2022/05/12 03:46:53;;;;;;;6.63;2.80;;;15.60;81.30;;;;;;5052210;28;20267;-62
2022/05/12 03:49:20;;;;;;;3.80;2.40;;;15.70;81.20;;;;;;5052185;28;20601;-62
2022/05/12 03:51:47;;;;;;;5.27;2.50;;;15.70;81.10;;;;;;5052332;28;20561;-61
2022/05/12 03:54:14;;;;;;;3.77;2.10;;;15.80;81.10;;;;;;5051885;28;20239;-61
2022/05/12 03:56:42;;;;;;;4.80;2.40;;;15.80;81.10;;;;;;5051780;28;20216;-60
2022/05/12 03:59:09;;;;;;;5.43;2.30;;;15.90;81.40;;;;;;5051813;28;20300;-61
2022/05/12 04:01:36;;;;;;;7.83;2.43;;;15.90;81.10;;;;;;5052073;28;20573;-62
2022/05/12 04:04:03;;;;;;;3.57;2.30;;;15.90;81.20;;;;;;5052155;28;20301;-61
2022/05/12 04:06:30;;;;;;;2.83;2.23;;;16.00;81.50;;;;;;5051899;28;20212;-62
2022/05/12 04:08:57;;;;;;;4.37;2.20;;;16.00;81.40;;;;;;5052005;28;20236;-61
2022/05/12 04:11:24;;;;;;;5.33;2.60;;;16.10;81.00;;;;;;5051784;28;20201;-62
2022/05/12 04:13:52;;;;;;;3.60;2.40;;;16.10;80.90;;;;;;5051610;28;20209;-61
2022/05/12 04:16:19;;;;;;;4.27;2.27;;;16.10;81.00;;;;;;5051622;28;20668;-61
2022/05/12 04:18:46;;;;;;;4.90;2.57;;;16.20;81.00;;;;;;5052061;28;20201;-61
2022/05/12 04:21:13;;;;;;;4.33;2.40;;;16.20;81.00;;;;;;5051370;28;20572;-62
2022/05/12 04:23:40;;;;;;;5.83;2.40;;;16.20;81.50;;;;;;5051332;28;20213;-63
2022/05/12 04:26:06;;;;;;;4.00;2.20;;;16.30;81.80;;;;;;5051916;28;20575;-60
2022/05/12 04:28:34;;;;;;;4.37;2.40;;;16.30;82.20;;;;;;5051708;28;20584;-60
2022/05/12 04:31:02;;;;;;;4.83;2.67;;;16.40;82.50;;;;;;5051626;28;20319;-60
2022/05/12 04:36:14;;;;;;;7.53;2.30;;;16.50;82.00;;;;;;5051529;28;20268;-64
2022/05/12 04:38:41;;;;;;;9.13;3.60;;;16.50;81.70;;;;;;5051323;28;20217;-61
2022/05/12 04:41:08;;;;;;;7.30;2.43;;;16.70;81.60;;;;;;5051555;28;20209;-61
2022/05/12 04:43:35;;;;;;;7.33;2.70;;;16.70;81.50;;;;;;5051415;28;20206;-62
2022/05/12 04:46:03;;;;;;;8.27;2.77;;;16.80;81.10;;;;;;5051296;28;20201;-60
2022/05/12 04:48:31;;;;;;;5.40;2.60;;;16.80;81.60;;;;;;5051412;28;20236;-62
2022/05/12 04:50:59;;;;;;;5.67;2.47;;;16.90;81.50;;;;;;5051624;28;20206;-61
2022/05/12 04:53:26;;;;;;;7.27;2.90;;;17.00;81.40;;;;;;5051480;28;20213;-62
2022/05/12 04:55:53;;;;;;;6.80;2.40;;;17.10;81.20;;;;;;5051141;28;20451;-62
2022/05/12 04:58:19;;;;;;;7.50;2.50;;;17.10;80.70;;;;;;5051301;28;20223;-62
2022/05/12 05:00:46;;;;;;;7.97;3.53;;;17.30;79.80;;;;;;5051444;28;20205;-61
2022/05/12 05:03:15;;;;;;;5.07;2.83;;;17.30;80.00;;;;;;5051436;28;20213;-61
2022/05/12 05:05:42;;;;;;;8.87;2.67;;;17.40;79.40;;;;;;5052439;28;20205;-61
2022/05/12 05:08:12;;;;;;;4.93;2.47;;;17.50;78.80;;;;;;5055283;28;20232;-61
2022/05/12 05:10:39;;;;;;;4.70;2.50;;;17.70;78.50;;;;;;5055099;28;20190;-62
2022/05/12 05:13:06;;;;;;;4.40;2.10;;;17.80;77.90;;;;;;5054841;28;20212;-62
2022/05/12 05:15:34;;;;;;;4.17;2.40;;;17.90;78.00;;;;;;5054676;28;20216;-62
2022/05/12 05:18:02;;;;;;;5.03;2.43;;;18.00;76.80;;;;;;5055073;28;20619;-62
2022/05/12 05:20:32;;;;;;;6.57;2.57;;;18.20;77.10;;;;;;5054920;28;20201;-62
2022/05/12 05:22:59;;;;;;;5.10;2.40;;;18.20;76.50;;;;;;5054819;28;20231;-61
2022/05/12 05:25:26;;;;;;;4.10;2.33;;;18.40;75.80;;;;;;5054654;28;20567;-62
2022/05/12 05:27:54;;;;;;;4.30;2.37;;;18.60;75.20;;;;;;5054850;28;20226;-61
2022/05/12 05:30:23;;;;;;;5.20;2.43;;;18.70;75.00;;;;;;5054552;28;20205;-61
2022/05/12 05:32:50;;;;;;;6.53;2.50;;;18.90;75.00;;;;;;5054519;28;20203;-63
2022/05/12 05:35:17;;;;;;;6.03;2.60;;;19.10;74.70;;;;;;5054411;28;20200;-62
2022/05/12 05:37:47;;;;;;;7.40;2.47;;;19.30;73.80;;;;;;5054614;28;20214;-62
2022/05/12 05:40:15;;;;;;;5.57;2.10;;;19.50;73.80;;;;;;5054565;28;20765;-62
2022/05/12 05:42:43;;;;;;;7.67;3.63;;;19.70;73.70;;;;;;5054251;28;20206;-62
2022/05/12 05:45:12;;;;;;;7.57;4.40;;;19.90;73.20;;;;;;5054216;28;20202;-62
2022/05/12 05:47:39;;;;;;;4.77;2.20;;;20.00;72.90;;;;;;5054307;28;20705;-61
2022/05/12 05:50:08;;;;;;;3.30;2.20;;;20.10;72.20;;;;;;5054432;28;20216;-62
2022/05/12 05:55:21;;;;;;;3.33;2.30;;;20.30;72.00;;;;;;5054014;28;20197;-62
2022/05/12 05:57:49;;;;;;;6.37;3.47;;;20.40;71.70;;;;;;5054174;28;20203;-62
2022/05/12 06:00:17;;;;;;;6.67;3.57;;;20.50;72.00;;;;;;5053904;28;20210;-64
2022/05/12 06:02:44;;;;;;;4.30;2.60;;;20.50;71.90;;;;;;5053998;28;20227;-63
2022/05/12 06:05:11;;;;;;;5.17;2.47;;;20.70;71.80;;;;;;5054005;28;20237;-61
2022/05/12 06:07:39;;;;;;;11.97;2.80;;;20.70;71.10;;;;;;5054095;28;20687;-63
2022/05/12 06:10:07;;;;;;;2.90;2.10;;;20.80;71.50;;;;;;5053867;28;20655;-62
2022/05/12 06:12:36;;;;;;;8.60;2.47;;;20.90;71.40;;;;;;5053981;28;20573;-61
2022/05/12 06:15:03;;;;;;;5.10;2.27;;;21.00;71.60;;;;;;5053797;28;20203;-63
2022/05/12 06:17:30;;;;;;;4.73;2.27;;;21.10;71.70;;;;;;5053740;28;20213;-62
2022/05/12 06:19:57;;;;;;;8.23;2.80;;;21.30;72.00;;;;;;5053975;28;20201;-62
2022/05/12 06:22:25;;;;;;;4.33;2.30;;;21.40;72.80;;;;;;5053630;28;20225;-61
2022/05/12 06:24:51;;;;;;;5.43;2.70;;;21.50;73.00;;;;;;5053735;28;20316;-62
2022/05/12 06:27:20;;;;;;;4.60;2.60;;;21.60;73.30;;;;;;5053729;28;20659;-62
2022/05/12 06:29:48;;;;;;;6.63;2.70;;;21.70;72.80;;;;;;5053700;28;20573;-63
2022/05/12 06:32:15;;;;;;;3.80;1.93;;;21.90;72.50;;;;;;5053477;28;20209;-62
2022/05/12 06:34:42;;;;;;;4.40;2.13;;;21.90;73.60;;;;;;5052943;28;20263;-63
2022/05/12 06:37:10;;;;;;;9.80;2.57;;;22.00;72.80;;;;;;5053376;28;20259;-62
2022/05/12 06:39:37;;;;;;;5.53;2.97;;;22.20;72.60;;;;;;5053544;28;20202;-62
2022/05/12 06:42:05;;;;;;;5.97;2.83;;;22.30;72.70;;;;;;5053331;28;20213;-62
2022/05/12 06:44:32;;;;;;;4.27;2.60;;;22.40;72.80;;;;;;5053173;28;20209;-62
2022/05/12 06:47:00;;;;;;;2.90;2.20;;;22.40;73.00;;;;;;5053338;28;20302;-62
2022/05/12 06:49:28;;;;;;;5.80;3.13;;;22.60;72.70;;;;;;5052931;28;20226;-63
2022/05/12 06:51:55;;;;;;;6.53;2.57;;;22.70;73.00;;;;;;5053142;28;20201;-63
2022/05/12 06:54:23;;;;;;;4.53;2.70;;;22.80;73.00;;;;;;5052952;28;20217;-61
2022/05/12 06:56:50;;;;;;;8.17;2.60;;;22.90;73.00;;;;;;5053354;28;20300;-66
2022/05/12 06:59:16;;;;;;;6.67;2.80;;;23.00;73.10;;;;;;5053009;28;20252;-62
2022/05/12 07:01:43;;;;;;;4.03;2.63;;;23.00;73.20;;;;;;5053187;28;20205;-61
2022/05/12 07:04:11;;;;;;;5.40;2.70;;;23.20;73.40;;;;;;5053178;28;20669;-63
2022/05/12 07:06:38;;;;;;;5.80;2.50;;;23.20;73.60;;;;;;5053151;28;20565;-63
2022/05/12 07:09:05;;;;;;;7.47;3.03;;;23.30;73.60;;;;;;5052787;28;20227;-64
2022/05/12 07:11:32;;;;;;;4.77;2.83;;;23.40;73.90;;;;;;5053202;28;20232;-64
2022/05/12 07:13:58;;;;;;;6.77;2.90;;;23.40;73.20;;;;;;5052905;28;20661;-63
2022/05/12 07:16:25;;;;;;;8.03;3.20;;;23.50;71.90;;;;;;5052917;28;20666;-62
2022/05/12 07:18:52;;;;;;;11.90;4.13;;;23.50;72.30;;;;;;5053078;28;20582;-62
2022/05/12 07:26:50;;;;;;;5.03;2.67;;;23.60;72.30;;;;;;5052345;28;20191;-63
2022/05/12 07:29:18;;;;;;;5.27;2.70;;;23.70;72.80;;;;;;5051200;28;20229;-62
2022/05/12 07:31:47;;;;;;;4.27;2.73;;;23.70;74.00;;;;;;5052525;28;20534;-62
2022/05/12 07:34:13;;;;;;;5.17;2.80;;;23.80;73.50;;;;;;5051949;28;20284;-62
2022/05/12 07:36:45;;;;;;;7.63;3.03;;;23.80;73.50;;;;;;5052362;28;20231;-60
2022/05/12 07:39:12;;;;;;;7.20;3.37;;;24.00;73.70;;;;;;5051947;28;20186;-62
2022/05/12 07:41:41;;;;;;;6.37;2.90;;;24.00;73.30;;;;;;5052404;28;20301;-62
2022/05/12 07:44:08;;;;;;;4.83;3.03;;;24.10;73.60;;;;;;5052256;28;20732;-62
2022/05/12 07:46:34;;;;;;;5.77;3.77;;;24.20;74.10;;;;;;5052135;28;20255;-63
2022/05/12 07:49:01;;;;;;;7.17;3.70;;;24.20;74.30;;;;;;5051631;28;20257;-63
2022/05/12 07:51:28;;;;;;;5.77;2.90;;;24.30;74.50;;;;;;5052129;28;20218;-62
2022/05/12 07:53:56;;;;;;;5.53;3.13;;;24.40;74.50;;;;;;5052044;28;20209;-63
2022/05/12 07:56:25;;;;;;;6.43;3.27;;;24.50;74.40;;;;;;5051944;28;20570;-62
2022/05/12 07:58:52;;;;;;;5.50;3.40;;;24.50;74.10;;;;;;5051619;28;20227;-63
2022/05/12 08:01:20;;;;;;;9.50;3.20;;;24.60;73.60;;;;;;5052091;28;20206;-62
2022/05/12 08:03:47;;;;;;;5.53;2.93;;;24.60;73.50;;;;;;5052097;28;20213;-62
2022/05/12 08:06:15;;;;;;;5.63;2.90;;;24.70;73.40;;;;;;5051792;28;20208;-62
2022/05/12 08:08:42;;;;;;;4.10;2.83;;;24.70;73.40;;;;;;5051905;28;20468;-61
2022/05/12 08:11:11;;;;;;;5.23;3.20;;;24.70;73.70;;;;;;5051632;28;20211;-64
2022/05/12 08:13:38;;;;;;;4.43;3.10;;;24.70;74.20;;;;;;5052103;28;20628;-63
2022/05/12 08:16:07;;;;;;;4.37;3.00;;;24.80;73.90;;;;;;5051830;28;20621;-62
2022/05/12 08:18:35;;;;;;;7.57;3.37;;;24.80;73.70;;;;;;5051936;28;20740;-61
2022/05/12 08:21:03;;;;;;;4.43;2.73;;;24.90;73.80;;;;;;5051622;28;20278;-61
2022/05/12 08:23:30;;;;;;;5.77;3.00;;;24.90;74.10;;;;;;5052038;28;20204;-62
2022/05/12 08:25:57;;;;;;;4.80;2.70;;;24.90;74.10;;;;;;5051424;28;20217;-62
2022/05/12 08:28:26;;;;;;;6.27;2.90;;;25.00;73.60;;;;;;5051735;28;20203;-61
2022/05/12 08:30:53;;;;;;;7.20;3.30;;;25.10;73.80;;;;;;5051711;28;20211;-62
2022/05/12 08:33:21;;;;;;;8.73;3.10;;;25.10;73.80;;;;;;5051555;28;20237;-62
2022/05/12 08:35:47;;;;;;;6.63;3.00;;;25.20;74.00;;;;;;5051148;28;20189;-62
2022/05/12 08:38:16;;;;;;;4.87;3.00;;;25.20;73.80;;;;;;5051655;28;20204;-62
2022/05/12 08:40:49;;;;;;;4.93;2.80;;;25.30;73.60;;;;;;5054385;28;20210;-62
2022/05/12 08:43:18;;;;;;;3.77;2.87;;;25.30;73.90;;;;;;5055789;28;20203;-63
2022/05/12 08:45:47;;;;;;;3.77;2.80;;;25.40;73.70;;;;;;5055394;28;20206;-63
2022/05/12 08:48:16;;;;;;;5.50;3.20;;;25.40;73.40;;;;;;5055389;28;20250;-62
2022/05/12 08:50:44;;;;;;;4.70;3.20;;;25.50;74.30;;;;;;5055597;28;20231;-62
2022/05/12 08:53:14;;;;;;;6.93;3.53;;;25.50;74.10;;;;;;5055527;28;20590;-63
2022/05/12 08:55:46;;;;;;;5.87;3.10;;;25.60;74.10;;;;;;5055412;28;20248;-65
2022/05/12 08:58:20;;;;;;;9.53;3.13;;;25.60;74.10;;;;;;5055593;28;20651;-61
2022/05/12 09:00:57;;;;;;;8.40;3.23;;;25.70;74.20;;;;;;5055438;28;20540;-61
2022/05/12 09:03:34;;;;;;;9.02;3.13;;;25.70;73.90;;;;;;5055443;28;20652;-61
2022/05/12 09:06:03;;;;;;;7.97;3.37;;;25.80;73.90;;;;;;5055201;28;20202;-63
2022/05/12 09:08:38;;;;;;;9.57;3.50;;;25.90;73.70;;;;;;5055310;28;20231;-62
2022/05/12 09:11:11;;;;;;;12.20;4.10;;;25.90;73.40;;;;;;5055089;28;20187;-61
2022/05/12 09:13:44;;;;;;;6.85;3.28;;;25.90;73.90;;;;;;5055375;28;20190;-62
2022/05/12 09:16:19;;;;;;;7.60;3.42;;;26.00;74.10;;;;;;5055209;28;20215;-62
2022/05/12 09:18:46;;;;;;;7.73;3.00;;;26.10;73.80;;;;;;5054713;28;20203;-64
2022/05/12 09:21:15;;;;;;;7.53;3.70;;;26.20;73.90;;;;;;5055090;28;20598;-61
2022/05/12 09:23:43;;;;;;;6.53;3.47;;;26.20;73.70;;;;;;5054691;28;20217;-63
2022/05/12 09:26:32;;;;;;;6.47;3.27;;;26.30;73.20;;;;;;5054880;28;20535;-62
2022/05/12 09:29:15;;;;;;;11.03;4.57;;;26.30;73.30;;;;;;5054741;28;20196;-62
2022/05/12 09:31:46;;;;;;;6.30;3.83;;;26.40;73.50;;;;;;5054631;28;20196;-62
2022/05/12 09:34:27;;;;;;;12.43;3.90;;;26.40;72.50;;;;;;5054477;28;20814;-62
2022/05/12 09:36:55;;;;;;;11.70;3.83;;;26.50;72.80;;;;;;5054660;28;20205;-62
2022/05/12 09:39:37;;;;;;;10.98;3.65;;;26.50;71.90;;;;;;5054706;28;20205;-63
2022/05/12 09:42:06;;;;;;;10.77;3.50;;;26.60;72.60;;;;;;5052515;28;20220;-62
2022/05/12 09:44:34;;;;;;;12.30;4.13;;;26.60;73.00;;;;;;5054348;28;20223;-61
2022/05/12 09:47:06;;;;;;;7.13;3.97;;;26.70;72.30;;;;;;5054324;28;20214;-64
2022/05/12 09:49:38;;;;;;;9.43;4.00;;;26.80;71.70;;;;;;5054232;28;20248;-62
2022/05/12 09:52:26;;;;;;;9.38;3.40;;;26.80;72.10;;;;;;5053695;28;20649;-62
2022/05/12 09:55:11;;;;;;;4.88;3.22;;;26.90;71.30;;;;;;5053899;28;20203;-64
2022/05/12 09:57:46;;;;;;;8.38;3.67;;;27.00;70.70;;;;;;5054161;28;20637;-63
2022/05/12 10:00:26;;;;;;;7.27;3.37;;;27.00;71.00;;;;;;5054005;28;20189;-62
2022/05/12 10:08:29;;;;;;;7.28;3.70;;;27.20;71.20;;;;;;5053794;28;20206;-62
2022/05/12 10:11:01;;;;;;;6.20;3.22;;;27.20;70.20;;;;;;5054101;28;20233;-63
2022/05/12 10:13:35;;;;;;;6.88;3.10;;;27.30;69.50;;;;;;5054158;28;20199;-63
2022/05/12 10:16:02;;;;;;;6.60;3.45;;;27.30;69.90;;;;;;5054034;28;20196;-62
2022/05/12 10:18:34;;;;;;;6.75;3.42;;;27.30;70.20;;;;;;5054048;28;20248;-63
2022/05/12 10:21:11;;;;;;;7.57;3.40;;;27.20;68.50;;;;;;5053517;28;20234;-64
2022/05/12 10:23:50;;;;;;;6.70;3.60;;;27.20;68.30;;;;;;5053314;28;20187;-62
2022/05/12 10:26:22;;;;;;;7.60;3.60;;;27.20;68.90;;;;;;5053884;28;20192;-63
2022/05/12 10:28:52;;;;;;;16.45;3.67;;;27.20;69.00;;;;;;5053607;28;20191;-63
2022/05/12 10:31:26;;;;;;;7.57;3.40;;;27.20;69.00;;;;;;5053641;28;20728;-64
2022/05/12 10:34:04;;;;;;;6.57;3.47;;;27.30;69.30;;;;;;5053298;28;20326;-62
2022/05/12 10:36:44;;;;;;;14.15;3.80;;;27.40;69.80;;;;;;5053658;28;20553;-63
2022/05/12 10:39:20;;;;;;;12.00;3.80;;;27.40;69.80;;;;;;5053509;28;20196;-64
2022/05/12 10:42:05;;;;;;;14.52;3.63;;;27.40;69.30;;;;;;5053063;28;20203;-63
2022/05/12 10:44:49;;;;;;;9.52;3.55;;;27.50;69.30;;;;;;5053260;28;20575;-62
2022/05/12 10:47:27;;;;;;;6.10;3.97;;;27.50;69.50;;;;;;5053231;28;20191;-63
2022/05/12 10:50:04;;;;;;;9.88;3.95;;;27.50;69.30;;;;;;5053129;28;20218;-61
2022/05/12 10:52:40;;;;;;;7.82;3.20;;;27.60;69.20;;;;;;5053179;28;20199;-63
2022/05/12 10:55:28;;;;;;;8.15;3.95;;;27.60;69.10;;;;;;5053158;28;20195;-63
2022/05/12 10:58:05;;;;;;;7.10;3.97;;;27.60;69.30;;;;;;5053077;28;20237;-63
2022/05/12 11:00:49;;;;;;;8.07;4.00;;;27.60;69.60;;;;;;5053236;28;20191;-63
2022/05/12 11:03:22;;;;;;;14.38;3.83;;;27.70;69.50;;;;;;5052058;28;20634;-63
2022/05/12 11:05:54;;;;;;;6.78;3.45;;;27.80;69.60;;;;;;5052718;28;20212;-63
2022/05/12 11:08:24;;;;;;;7.63;3.40;;;27.80;67.90;;;;;;5053183;28;20544;-64
2022/05/12 11:10:54;;;;;;;8.15;3.88;;;27.80;68.10;;;;;;5052899;28;20214;-62
2022/05/12 11:13:28;;;;;;;6.75;3.25;;;27.90;68.60;;;;;;5053227;28;20216;-62
2022/05/12 11:16:00;;;;;;;12.38;4.00;;;27.80;68.00;;;;;;5053002;28;20350;-61
2022/05/12 11:18:34;;;;;;;9.63;3.47;;;27.80;68.00;;;;;;5052755;28;20246;-61
2022/05/12 11:21:13;;;;;;;6.30;3.10;;;27.80;67.90;;;;;;5052779;28;20234;-63
2022/05/12 11:23:55;;;;;;;7.55;3.67;;;27.90;68.30;;;;;;5052450;28;20194;-63
2022/05/12 11:26:39;;;;;;;8.95;3.95;;;27.90;68.30;;;;;;5052784;28;20631;-64
2022/05/12 11:32:09;;;;;;;12.23;3.55;;;28.00;68.10;;;;;;5052519;28;20188;-63
2022/05/12 11:34:39;;;;;;;4.78;3.17;;;28.00;67.60;;;;;;5052103;28;20239;-62
2022/05/12 11:37:30;;;;;;;9.40;3.85;;;28.10;67.30;;;;;;5052531;28;20202;-62
2022/05/12 11:39:58;;;;;;;12.93;3.70;;;28.10;66.70;;;;;;5052558;28;20198;-66
2022/05/12 11:42:26;;;;;;;11.07;4.15;;;28.10;65.50;;;;;;5052229;28;20753;-61
2022/05/12 11:45:02;;;;;;;10.00;3.95;;;28.10;66.00;;;;;;5052274;28;20219;-62
2022/05/12 11:47:57;;;;;;;13.07;4.07;;;28.20;66.70;;;;;;5052115;28;20205;-62
2022/05/12 11:50:39;;;;;;;11.48;3.58;;;28.30;66.50;;;;;;5051730;28;20228;-64
2022/05/12 11:53:15;;;;;;;6.05;3.22;;;28.30;66.80;;;;;;5052229;28;20216;-62
2022/05/12 11:56:04;;;;;;;8.20;3.30;;;28.30;66.30;;;;;;5051681;28;20197;-62
2022/05/12 11:58:38;;;;;;;7.90;3.20;;;28.40;65.60;;;;;;5051726;28;20192;-64
2022/05/12 12:01:11;;;;;;;15.27;3.45;;;28.40;65.50;;;;;;5051869;28;20242;-62
2022/05/12 12:03:56;;;;;;;9.43;3.20;;;28.40;65.60;;;;;;5051980;28;20626;-62
2022/05/12 12:06:41;;;;;;;13.27;3.58;;;28.40;66.00;;;;;;5051462;28;20196;-63
2022/05/12 12:09:31;;;;;;;13.02;3.03;;;28.40;65.40;;;;;;5051845;28;20186;-62
2022/05/12 12:11:58;;;;;;;5.07;3.28;;;28.40;64.80;;;;;;5051878;28;20193;-63
2022/05/12 12:14:57;;;;;;;12.40;3.38;;;28.40;64.90;;;;;;5051354;28;20684;-63
2022/05/12 12:17:32;;;;;;;5.00;2.88;;;28.40;64.80;;;;;;5051457;28;20661;-62
2022/05/12 12:20:05;;;;;;;9.75;3.30;;;28.40;65.20;;;;;;5051425;28;20202;-62
2022/05/12 12:22:44;;;;;;;6.63;2.72;;;28.40;65.10;;;;;;5051604;28;20281;-63
2022/05/12 12:25:31;;;;;;;6.93;3.03;;;28.40;65.30;;;;;;5051476;28;20242;-63
2022/05/12 12:28:23;;;;;;;6.25;2.95;;;28.50;65.30;;;;;;5051648;28;20280;-63
2022/05/12 12:31:06;;;;;;;9.02;2.85;;;28.50;65.70;;;;;;5051489;28;20231;-62
2022/05/12 12:33:57;;;;;;;5.97;3.05;;;28.50;65.70;;;;;;5051196;28;20244;-63
2022/05/12 12:36:56;;;;;;;23.95;3.30;;;28.60;65.70;;;;;;5041272;28;20244;-62
2022/05/12 12:39:42;;;;;;;18.52;3.08;;;28.60;65.10;;;;;;5045807;28;20287;-63
2022/05/12 12:42:23;;;;;;;8.57;2.90;;;28.60;63.40;;;;;;5051307;28;20269;-62
2022/05/12 12:44:53;;;;;;;12.10;3.35;;;28.60;62.50;;;;;;5051543;28;20195;-62
2022/05/12 12:47:39;;;;;;;9.13;2.90;;;28.70;62.10;;;;;;5051256;28;20213;-62
2022/05/12 12:50:25;;;;;;;8.95;3.08;;;28.70;62.30;;;;;;5051502;28;20227;-62
2022/05/12 12:52:56;;;;;;;9.80;3.03;;;28.70;62.00;;;;;;5051483;28;20549;-62
2022/05/12 12:58:17;;;;;;;5.95;2.88;;;28.70;61.50;;;;;;5051015;28;20192;-62
2022/05/12 13:00:44;;;;;;;5.10;2.55;;;28.70;62.20;;;;;;5051364;28;20546;-63
2022/05/12 13:03:20;;;;;;;15.10;3.05;;;28.70;61.60;;;;;;5050764;28;20208;-62
2022/05/12 13:05:48;;;;;;;6.53;2.70;;;28.70;62.20;;;;;;5051192;28;20195;-63
2022/05/12 13:08:25;;;;;;;12.15;3.35;;;28.80;63.00;;;;;;5050871;28;20219;-63
2022/05/12 13:10:58;;;;;;;6.10;2.65;;;28.80;61.90;;;;;;5051243;28;20753;-63
2022/05/12 13:13:27;;;;;;;12.50;3.47;;;28.70;62.40;;;;;;5050756;28;20195;-63
2022/05/12 13:15:58;;;;;;;8.45;3.05;;;28.70;62.40;;;;;;5051256;28;20567;-67
2022/05/12 13:18:30;;;;;;;6.60;2.83;;;28.70;62.90;;;;;;5051054;28;20198;-62
2022/05/12 13:21:00;;;;;;;6.90;2.90;;;28.70;62.90;;;;;;5050915;28;20277;-62
2022/05/12 13:23:29;;;;;;;12.65;2.90;;;28.60;63.20;;;;;;5051081;28;20201;-63
2022/05/12 13:25:58;;;;;;;8.23;3.00;;;28.60;63.30;;;;;;5050931;28;20217;-62
2022/05/12 13:28:29;;;;;;;7.93;3.25;;;28.60;63.60;;;;;;5054497;28;20210;-63